Time;durP1;ratioP1;P1;durP2;ratioP2;P2;SDS_P1;SDS_P2;PMS_P1;PMS_P2;Temp;Humidity;BMP_temperature;BMP_pressure;BME280_temperature;BME280_humidity;BME280_pressure;Samples;Min_cycle;Max_cycle;Signal;HPM_P1;HPM_P2
2022/10/14 00:01:59;;;;;;;49.03;16.37;;;;;;;7.66;89.25;100275.84;5016001;28;20221;-66
2022/10/14 00:04:26;;;;;;;35.53;15.40;;;;;;;7.67;89.10;100274.88;5014751;28;20226;-66
2022/10/14 00:06:53;;;;;;;40.57;15.83;;;;;;;7.71;89.03;100273.66;5017909;28;21274;-69
2022/10/14 00:09:19;;;;;;;40.83;16.13;;;;;;;7.78;88.69;100273.97;5016316;28;20226;-66
2022/10/14 00:11:45;;;;;;;43.27;16.37;;;;;;;7.79;87.97;100268.53;5018109;28;20218;-66
2022/10/14 00:14:16;;;;;;;37.00;15.37;;;;;;;7.83;88.39;100271.75;5017499;28;20229;-66
2022/10/14 00:16:44;;;;;;;35.10;15.33;;;;;;;7.69;88.83;100269.47;5014814;28;20237;-67
2022/10/14 00:19:11;;;;;;;35.53;15.33;;;;;;;7.73;88.86;100269.06;5012806;28;20244;-64
2022/10/14 00:21:40;;;;;;;35.50;15.43;;;;;;;7.72;88.47;100264.72;5016562;28;20261;-68
2022/10/14 00:24:06;;;;;;;39.97;14.93;;;;;;;7.68;88.50;100268.63;5017157;28;20230;-67
2022/10/14 00:26:35;;;;;;;38.03;15.33;;;;;;;7.65;89.16;100268.84;5017538;28;20505;-67
2022/10/14 00:29:03;;;;;;;35.23;15.37;;;;;;;7.65;89.02;100270.69;5016813;28;22677;-65
2022/10/14 00:31:31;;;;;;;36.30;14.83;;;;;;;7.77;88.60;100266.97;5016402;28;20869;-66
2022/10/14 00:33:58;;;;;;;34.37;14.37;;;;;;;7.68;88.46;100262.47;5016544;28;20238;-67
2022/10/14 00:36:25;;;;;;;35.33;15.30;;;;;;;7.65;88.71;100260.09;5015153;28;20242;-65
2022/10/14 00:38:52;;;;;;;36.70;15.40;;;;;;;7.70;89.28;100255.22;5026590;28;20245;-66
2022/10/14 00:41:28;;;;;;;40.03;15.30;;;;;;;7.60;88.96;100250.72;4601547;28;20269;-64
2022/10/14 00:43:57;;;;;;;34.23;14.67;;;;;;;7.66;88.96;100248.53;4220715;28;20735;-66
2022/10/14 00:46:25;;;;;;;41.40;16.10;;;;;;;7.60;89.38;100256.00;4217261;28;20417;-64
2022/10/14 00:48:52;;;;;;;38.70;15.47;;;;;;;7.65;88.98;100265.38;4218966;28;24034;-65
2022/10/14 00:51:19;;;;;;;37.27;16.27;;;;;;;7.56;89.77;100257.25;4219751;28;20254;-66
2022/10/14 00:53:46;;;;;;;42.67;14.70;;;;;;;7.48;89.48;100249.13;4220816;28;20237;-65
2022/10/14 00:56:15;;;;;;;39.07;16.00;;;;;;;7.54;89.91;100250.41;4222067;28;20252;-65
2022/10/14 00:58:42;;;;;;;35.27;15.57;;;;;;;7.43;90.27;100251.31;4208476;28;21760;-63
2022/10/14 01:01:09;;;;;;;38.50;15.50;;;;;;;7.42;90.55;100254.91;4222249;28;20228;-64
2022/10/14 01:03:35;;;;;;;38.07;15.20;;;;;;;7.36;90.96;100250.16;4226665;28;20244;-64
2022/10/14 01:06:08;;;;;;;35.93;15.57;;;;;;;7.38;90.57;100253.50;4246616;28;20249;-65
2022/10/14 01:08:41;;;;;;;35.80;15.50;;;;;;;7.38;90.46;100250.88;4224549;28;20240;-65
2022/10/14 01:11:27;;;;;;;37.30;14.90;;;;;;;7.26;90.55;100249.22;4224115;28;22696;-66
2022/10/14 01:14:23;;;;;;;35.07;15.03;;;;;;;7.26;90.83;100246.59;4234162;28;20246;-66
2022/10/14 01:16:59;;;;;;;40.57;15.03;;;;;;;7.12;91.93;100240.66;4227396;28;20305;-63
2022/10/14 01:19:28;;;;;;;36.57;16.27;;;;;;;7.12;91.31;100245.94;4226448;28;21146;-66
2022/10/14 01:21:59;;;;;;;40.57;16.10;;;;;;;7.17;91.74;100243.75;4224295;28;24888;-64
2022/10/14 01:24:40;;;;;;;38.00;16.33;;;;;;;7.16;91.86;100242.09;4219686;28;20346;-65
2022/10/14 01:27:17;;;;;;;36.10;16.27;;;;;;;7.18;91.53;100240.13;4236817;28;20299;-63
2022/10/14 01:30:03;;;;;;;44.57;16.40;;;;;;;7.18;92.01;100239.28;4229411;28;20911;-64
2022/10/14 01:32:37;;;;;;;43.43;17.00;;;;;;;7.24;91.88;100237.97;4227969;28;20338;-65
2022/10/14 01:35:31;;;;;;;41.03;16.93;;;;;;;7.20;91.50;100232.06;4221961;28;20386;-65
2022/10/14 01:38:02;;;;;;;40.37;16.37;;;;;;;7.27;91.38;100237.69;4252651;28;21505;-64
2022/10/14 01:40:45;;;;;;;40.97;15.67;;;;;;;7.22;91.75;100235.44;4218756;28;20240;-65
2022/10/14 01:43:12;;;;;;;36.20;16.03;;;;;;;7.27;91.03;100227.09;4221495;28;20254;-65
2022/10/14 01:45:40;;;;;;;40.17;16.90;;;;;;;7.31;91.24;100217.94;4204360;28;20245;-66
2022/10/14 01:48:08;;;;;;;38.40;15.93;;;;;;;7.31;91.27;100217.94;4221950;28;22106;-65
2022/10/14 01:50:35;;;;;;;38.33;16.50;;;;;;;7.29;91.09;100214.59;4215423;28;20302;-64
2022/10/14 01:53:05;;;;;;;44.07;16.50;;;;;;;7.29;91.34;100211.94;4232146;28;20231;-64
2022/10/14 01:55:35;;;;;;;34.90;14.97;;;;;;;7.22;91.77;100219.56;4221865;28;23855;-66
2022/10/14 01:58:03;;;;;;;46.63;17.03;;;;;;;7.19;91.54;100218.00;4224439;28;20236;-64
2022/10/14 02:00:29;;;;;;;39.03;15.43;;;;;;;7.26;91.55;100209.53;4230314;28;20926;-65
2022/10/14 02:02:56;;;;;;;43.17;17.33;;;;;;;7.28;91.00;100205.81;4226968;28;20240;-66
2022/10/14 02:05:39;;;;;;;34.47;16.90;;;;;;;7.16;91.81;100193.59;4220716;28;20233;-64
2022/10/14 02:08:11;;;;;;;38.60;16.00;;;;;;;7.18;92.37;100199.59;4210202;28;22338;-66
2022/10/14 02:10:48;;;;;;;39.77;16.90;;;;;;;7.10;92.40;100202.06;4222302;28;20233;-65
2022/10/14 02:13:29;;;;;;;39.57;16.73;;;;;;;7.09;92.52;100201.19;4219402;28;20351;-66
2022/10/14 02:16:05;;;;;;;37.23;16.60;;;;;;;7.05;92.77;100196.31;4232434;28;20226;-64
2022/10/14 02:18:40;;;;;;;38.50;16.60;;;;;;;6.99;93.43;100202.94;4226650;28;20232;-64
2022/10/14 02:21:25;;;;;;;34.17;15.50;;;;;;;7.03;92.93;100199.09;4221373;28;22225;-66
2022/10/14 02:24:19;;;;;;;40.57;16.40;;;;;;;7.00;93.63;100199.34;4221637;28;20284;-66
2022/10/14 02:26:47;;;;;;;43.07;17.57;;;;;;;7.10;93.11;100210.00;4223725;28;20291;-65
2022/10/14 02:29:14;;;;;;;45.73;17.83;;;;;;;7.08;93.11;100201.34;4231545;28;20580;-63
2022/10/14 02:31:42;;;;;;;36.53;15.40;;;;;;;7.10;93.64;100200.25;4218455;28;20286;-66
2022/10/14 02:34:10;;;;;;;39.07;16.10;;;;;;;7.05;93.05;100194.50;4226550;28;25271;-67
2022/10/14 02:36:37;;;;;;;39.87;17.30;;;;;;;7.07;92.76;100189.06;4240363;28;20299;-65
2022/10/14 02:39:05;;;;;;;34.40;16.77;;;;;;;7.14;92.71;100184.94;4225494;28;20409;-66
2022/10/14 02:41:34;;;;;;;38.27;17.33;;;;;;;7.07;93.27;100183.78;4217752;28;20237;-64
2022/10/14 02:44:00;;;;;;;37.17;17.00;;;;;;;7.09;93.40;100180.03;4220588;28;20236;-64
2022/10/14 02:46:28;;;;;;;42.27;16.33;;;;;;;7.08;92.55;100181.00;4223758;28;20272;-65
2022/10/14 02:48:54;;;;;;;43.67;16.50;;;;;;;7.15;93.21;100178.69;4226071;28;20409;-65
2022/10/14 02:51:21;;;;;;;43.97;17.37;;;;;;;7.11;92.98;100178.09;4223469;28;20314;-65
2022/10/14 02:53:47;;;;;;;39.57;17.03;;;;;;;7.06;93.01;100176.81;4225121;28;21515;-66
2022/10/14 02:56:15;;;;;;;38.43;16.37;;;;;;;7.07;93.01;100181.13;4219804;28;23582;-65
2022/10/14 02:58:41;;;;;;;41.17;17.60;;;;;;;6.98;93.14;100182.75;4230722;28;21163;-66
2022/10/14 03:01:08;;;;;;;39.90;17.97;;;;;;;7.03;93.44;100183.22;4244939;28;23014;-64
2022/10/14 03:03:34;;;;;;;41.57;17.57;;;;;;;7.03;93.57;100177.91;4224749;28;20252;-66
2022/10/14 03:06:01;;;;;;;42.33;17.07;;;;;;;6.96;94.10;100179.41;4220703;28;20246;-64
2022/10/14 03:08:28;;;;;;;44.47;18.47;;;;;;;6.95;94.01;100170.63;4221068;28;25618;-66
2022/10/14 03:10:55;;;;;;;44.63;17.17;;;;;;;6.98;94.36;100172.19;4235333;28;20610;-66
2022/10/14 03:13:21;;;;;;;38.10;16.63;;;;;;;6.98;93.65;100169.53;4229588;28;20236;-64
2022/10/14 03:15:49;;;;;;;38.83;17.47;;;;;;;6.93;94.25;100161.13;4224967;28;20241;-65
2022/10/14 03:18:16;;;;;;;36.90;17.10;;;;;;;7.03;93.62;100162.03;4226708;28;20234;-64
2022/10/14 03:20:46;;;;;;;38.67;17.63;;;;;;;7.10;93.65;100165.84;4232015;28;20236;-64
2022/10/14 03:23:13;;;;;;;40.23;17.37;;;;;;;7.05;93.56;100160.13;4220415;28;20235;-65
2022/10/14 03:25:42;;;;;;;43.70;17.90;;;;;;;6.97;94.09;100165.19;4225161;28;20236;-67
2022/10/14 03:28:09;;;;;;;42.73;17.53;;;;;;;7.01;94.17;100161.31;4227732;28;20248;-66
2022/10/14 03:30:35;;;;;;;45.67;17.83;;;;;;;7.06;93.92;100161.78;4221357;28;20329;-65
2022/10/14 03:33:02;;;;;;;38.47;17.10;;;;;;;7.08;93.66;100159.84;4214335;28;20240;-66
2022/10/14 03:35:28;;;;;;;36.43;17.17;;;;;;;7.09;94.00;100158.88;4243369;28;20232;-64
2022/10/14 03:37:55;;;;;;;42.83;18.03;;;;;;;7.07;94.09;100168.75;4220822;28;20352;-65
2022/10/14 03:40:21;;;;;;;45.23;17.73;;;;;;;7.14;93.83;100163.78;4225819;28;22203;-63
2022/10/14 03:42:48;;;;;;;44.97;17.83;;;;;;;7.21;92.97;100161.44;4232768;28;20236;-66
2022/10/14 03:45:15;;;;;;;38.33;17.90;;;;;;;7.08;93.71;100159.84;4228853;28;20326;-64
2022/10/14 03:47:41;;;;;;;45.00;16.40;;;;;;;7.06;94.44;100150.34;4233613;28;20289;-66
2022/10/14 03:50:08;;;;;;;40.03;18.00;;;;;;;7.09;95.04;100156.22;4224335;28;20954;-65
2022/10/14 03:52:35;;;;;;;41.13;18.57;;;;;;;7.01;94.97;100156.03;4232085;28;20235;-63
2022/10/14 03:55:02;;;;;;;42.93;16.90;;;;;;;6.99;94.58;100155.31;4225417;28;20297;-65
2022/10/14 03:57:28;;;;;;;40.73;18.43;;;;;;;6.96;95.81;100153.78;4228567;28;20231;-63
2022/10/14 03:59:55;;;;;;;44.97;18.53;;;;;;;6.97;94.91;100149.31;4229753;28;20239;-63
2022/10/14 04:02:22;;;;;;;41.37;17.23;;;;;;;6.96;95.32;100153.78;4260380;28;20234;-64
2022/10/14 04:04:49;;;;;;;38.10;17.47;;;;;;;7.04;94.54;100147.00;4232723;28;21371;-64
2022/10/14 04:07:15;;;;;;;38.00;17.00;;;;;;;6.93;95.68;100147.91;4218478;28;21757;-63
2022/10/14 04:09:42;;;;;;;44.40;18.20;;;;;;;6.96;95.04;100145.84;4226449;28;20424;-64
2022/10/14 04:12:08;;;;;;;38.60;17.53;;;;;;;6.92;95.64;100140.94;4231938;28;20230;-65
2022/10/14 04:14:35;;;;;;;41.73;18.30;;;;;;;6.85;95.99;100126.56;4228876;28;21647;-64
2022/10/14 04:17:02;;;;;;;43.90;18.23;;;;;;;6.80;96.42;100139.31;4226130;28;20286;-65
2022/10/14 04:19:29;;;;;;;38.37;18.27;;;;;;;6.70;96.54;100140.09;4228051;28;21079;-67
2022/10/14 04:21:56;;;;;;;48.40;17.97;;;;;;;6.78;96.78;100130.69;4234811;28;23765;-63
2022/10/14 04:24:23;;;;;;;45.53;17.83;;;;;;;6.72;96.48;100130.22;4229943;28;20239;-65
2022/10/14 04:26:50;;;;;;;41.03;18.20;;;;;;;6.74;97.57;100119.50;4231794;28;21128;-65
2022/10/14 04:29:17;;;;;;;39.83;18.97;;;;;;;6.83;96.03;100123.19;4241763;28;20289;-65
2022/10/14 04:31:44;;;;;;;44.03;18.43;;;;;;;6.84;96.19;100114.31;4231975;28;20597;-63
2022/10/14 04:34:11;;;;;;;42.10;18.17;;;;;;;6.86;96.67;100117.63;4230671;28;20231;-64
2022/10/14 04:36:38;;;;;;;42.07;19.40;;;;;;;6.75;97.69;100110.63;4245210;28;21123;-64
2022/10/14 04:39:05;;;;;;;44.90;19.50;;;;;;;6.79;96.95;100112.03;4231281;28;21323;-63
2022/10/14 04:41:31;;;;;;;43.27;19.40;;;;;;;6.81;97.37;100106.59;4239889;28;20234;-64
2022/10/14 04:43:58;;;;;;;52.07;21.03;;;;;;;6.71;98.09;100107.38;4249020;28;20239;-64
2022/10/14 04:46:24;;;;;;;47.67;18.03;;;;;;;6.72;97.72;100100.31;4229981;28;23933;-64
2022/10/14 04:48:51;;;;;;;42.07;19.67;;;;;;;6.74;98.52;100104.50;4218803;28;20235;-63
2022/10/14 04:51:17;;;;;;;47.87;19.63;;;;;;;6.68;98.31;100094.44;4227405;28;20235;-63
2022/10/14 04:53:44;;;;;;;44.27;18.33;;;;;;;6.87;97.64;100103.47;4229187;28;20248;-68
2022/10/14 04:56:10;;;;;;;49.17;18.97;;;;;;;6.80;98.12;100104.94;4222284;28;20691;-61
2022/10/14 04:58:37;;;;;;;48.40;19.37;;;;;;;6.74;98.28;100101.84;4229027;28;20228;-63
2022/10/14 05:01:03;;;;;;;45.77;18.83;;;;;;;6.67;98.38;100108.63;4223874;28;20227;-63
2022/10/14 05:03:31;;;;;;;45.20;19.60;;;;;;;6.71;98.85;100109.19;4228184;28;21550;-64
2022/10/14 05:05:58;;;;;;;41.53;17.90;;;;;;;6.78;98.39;100113.00;4227364;28;20421;-63
2022/10/14 05:08:24;;;;;;;44.47;19.67;;;;;;;6.79;98.38;100105.91;4231512;28;20301;-64
2022/10/14 05:10:51;;;;;;;40.60;19.10;;;;;;;6.78;97.88;100105.06;4231172;28;20390;-63
2022/10/14 05:13:17;;;;;;;38.07;18.97;;;;;;;6.79;98.69;100105.91;4231688;28;22931;-67
2022/10/14 05:15:44;;;;;;;41.70;19.10;;;;;;;6.82;98.47;100106.50;4232913;28;20570;-64
2022/10/14 05:18:11;;;;;;;51.93;20.33;;;;;;;6.86;98.21;100107.91;4236093;28;21238;-65
2022/10/14 05:20:37;;;;;;;50.50;20.07;;;;;;;6.91;97.68;100104.88;4233195;28;20242;-62
2022/10/14 05:23:05;;;;;;;44.37;20.27;;;;;;;6.88;97.73;100110.41;4244681;28;22280;-64
2022/10/14 05:25:31;;;;;;;49.33;21.07;;;;;;;6.90;98.18;100108.47;4236582;28;20234;-68
2022/10/14 05:27:58;;;;;;;46.67;20.20;;;;;;;7.00;97.56;100105.88;4245382;28;20267;-62
2022/10/14 05:30:25;;;;;;;42.03;19.63;;;;;;;7.07;97.23;100115.84;4254099;28;21090;-62
2022/10/14 05:32:59;;;;;;;43.03;19.57;;;;;;;7.10;97.05;100112.94;4232317;28;22886;-63
2022/10/14 05:35:25;;;;;;;44.27;19.17;;;;;;;7.12;96.35;100111.00;4229014;28;23016;-61
2022/10/14 05:38:12;;;;;;;44.43;19.87;;;;;;;7.26;96.41;100108.97;4251747;28;20805;-61
2022/10/14 05:40:39;;;;;;;48.13;20.47;;;;;;;7.33;95.01;100105.69;4207470;28;20231;-63
2022/10/14 05:43:05;;;;;;;48.60;19.23;;;;;;;7.34;94.79;100111.78;4209639;28;25459;-63
2022/10/14 05:45:32;;;;;;;53.93;19.57;;;;;;;7.38;95.14;100110.56;4211375;28;20231;-68
2022/10/14 05:47:59;;;;;;;41.20;19.70;;;;;;;7.49;94.57;100115.78;4201994;28;20231;-62
2022/10/14 05:50:25;;;;;;;47.80;19.17;;;;;;;7.43;94.66;100104.88;4211362;28;21652;-63
2022/10/14 05:52:52;;;;;;;39.77;18.47;;;;;;;7.52;94.16;100115.50;4202923;28;20247;-64
2022/10/14 05:55:18;;;;;;;42.10;18.87;;;;;;;7.59;94.59;100114.00;4206959;28;21740;-62
2022/10/14 05:57:45;;;;;;;42.83;18.70;;;;;;;7.76;92.96;100114.34;4210634;28;20316;-63
2022/10/14 06:00:12;;;;;;;47.83;18.40;;;;;;;7.81;92.84;100115.59;4211427;28;20240;-65
2022/10/14 06:02:39;;;;;;;43.30;18.93;;;;;;;7.93;92.35;100118.97;4206060;28;20241;-69
2022/10/14 06:05:06;;;;;;;43.00;19.27;;;;;;;7.91;92.42;100120.91;4219679;28;20875;-63
2022/10/14 06:07:34;;;;;;;41.77;18.93;;;;;;;8.09;91.88;100122.91;4228722;28;22999;-70
2022/10/14 06:10:01;;;;;;;40.70;19.00;;;;;;;8.09;91.12;100114.97;4204485;28;25489;-69
2022/10/14 06:12:27;;;;;;;40.73;18.50;;;;;;;8.20;91.34;100115.69;4230292;28;21531;-72
2022/10/14 06:14:54;;;;;;;37.67;18.50;;;;;;;8.27;90.44;100125.75;4233939;28;20710;-72
2022/10/14 06:17:20;;;;;;;37.07;18.60;;;;;;;8.35;89.76;100124.06;4209161;28;20236;-70
2022/10/14 06:19:47;;;;;;;38.87;18.77;;;;;;;8.38;89.54;100125.59;4218616;28;20252;-68
2022/10/14 06:22:13;;;;;;;43.97;18.10;;;;;;;8.39;90.29;100122.81;4212379;28;20231;-69
2022/10/14 06:24:40;;;;;;;45.10;18.47;;;;;;;8.39;89.38;100136.06;4210751;28;25629;-68
2022/10/14 06:27:06;;;;;;;41.77;18.73;;;;;;;8.25;89.98;100124.06;4223970;28;20241;-69
2022/10/14 06:29:36;;;;;;;41.33;18.10;;;;;;;8.12;90.43;100118.16;4209046;28;21728;-69
2022/10/14 06:32:04;;;;;;;51.53;18.97;;;;;;;8.11;91.44;100115.69;4216057;28;21804;-71
2022/10/14 06:34:31;;;;;;;45.13;19.73;;;;;;;8.17;91.84;100131.88;4221765;28;20335;-68
2022/10/14 06:36:59;;;;;;;43.00;18.73;;;;;;;8.30;91.03;100123.66;4236043;28;20245;-67
2022/10/14 06:39:28;;;;;;;44.70;19.23;;;;;;;8.50;89.70;100128.97;4223817;28;20233;-69
2022/10/14 06:41:54;;;;;;;48.10;19.97;;;;;;;8.58;89.66;100124.66;4260936;28;20257;-65
2022/10/14 06:44:21;;;;;;;44.17;19.10;;;;;;;8.67;89.32;100133.59;4270395;28;20287;-67
2022/10/14 06:46:47;;;;;;;45.83;19.00;;;;;;;8.82;88.43;100141.97;4246854;28;23008;-67
2022/10/14 06:49:15;;;;;;;45.17;19.77;;;;;;;8.88;87.58;100130.81;4218120;28;20229;-69
2022/10/14 06:51:41;;;;;;;52.80;20.50;;;;;;;8.86;87.36;100128.28;4230489;28;20231;-67
2022/10/14 06:54:08;;;;;;;43.67;20.50;;;;;;;8.94;87.56;100140.00;4256634;28;20532;-66
2022/10/14 06:56:35;;;;;;;43.47;19.07;;;;;;;9.04;86.77;100136.38;4226199;28;20301;-68
2022/10/14 06:59:01;;;;;;;38.97;19.53;;;;;;;9.15;86.67;100143.31;4258212;28;20230;-68
2022/10/14 07:01:28;;;;;;;47.70;20.97;;;;;;;9.23;85.81;100143.44;4240997;28;20236;-69
2022/10/14 07:03:54;;;;;;;48.70;20.27;;;;;;;9.39;85.40;100144.66;4265495;28;20237;-66
2022/10/14 07:06:22;;;;;;;41.90;19.33;;;;;;;9.42;85.03;100147.03;4240082;28;20239;-69
2022/10/14 07:08:49;;;;;;;40.83;18.77;;;;;;;9.32;85.27;100144.41;4247581;28;21082;-65
2022/10/14 07:11:15;;;;;;;52.00;19.63;;;;;;;9.34;85.10;100146.91;4246617;28;20879;-70
2022/10/14 07:13:42;;;;;;;46.07;19.80;;;;;;;9.38;85.39;100140.31;4253533;28;20236;-67
2022/10/14 07:16:09;;;;;;;44.53;20.70;;;;;;;9.39;84.49;100147.31;4245700;28;20353;-68
2022/10/14 07:18:36;;;;;;;50.73;21.07;;;;;;;9.43;84.65;100143.38;4250396;28;20536;-66
2022/10/14 07:21:03;;;;;;;46.73;19.80;;;;;;;9.63;82.87;100137.03;4260618;28;21042;-66
2022/10/14 07:23:31;;;;;;;46.43;19.80;;;;;;;9.64;82.79;100143.16;4279040;28;20235;-69
2022/10/14 07:25:59;;;;;;;48.00;19.40;;;;;;;9.82;83.24;100146.72;4254434;28;20719;-71
2022/10/14 07:28:26;;;;;;;40.73;20.17;;;;;;;10.24;81.27;100146.22;4283342;28;20771;-67
2022/10/14 07:31:18;;;;;;;47.13;19.47;;;;;;;10.83;79.48;100151.94;4266971;28;20240;-68
2022/10/14 07:33:45;;;;;;;41.27;19.77;;;;;;;12.31;73.84;100155.44;4275164;28;20246;-67
2022/10/14 07:36:14;;;;;;;42.30;17.30;;;;;;;14.56;63.60;100185.81;4277178;28;20263;-67
2022/10/14 07:38:47;;;;;;;46.80;17.53;;;;;;;15.45;57.07;100175.38;4286102;28;20295;-69
2022/10/14 07:41:19;;;;;;;40.73;16.93;;;;;;;15.23;56.37;100174.41;4267773;28;20316;-68
2022/10/14 07:43:48;;;;;;;36.10;17.43;;;;;;;14.71;57.46;100162.63;4278281;28;20246;-69
2022/10/14 07:46:27;;;;;;;44.97;17.47;;;;;;;13.87;60.81;100162.38;4276212;28;20416;-71
2022/10/14 07:48:58;;;;;;;60.73;20.07;;;;;;;13.56;63.21;100158.81;4237106;28;21802;-67
2022/10/14 07:51:26;;;;;;;45.17;17.87;;;;;;;14.94;59.13;100175.19;4283995;28;20894;-66
2022/10/14 07:53:54;;;;;;;45.60;17.60;;;;;;;15.91;53.66;100177.91;4269847;28;20276;-65
2022/10/14 07:56:21;;;;;;;33.83;16.23;;;;;;;16.32;51.87;100177.41;4239760;28;20601;-67
2022/10/14 07:58:48;;;;;;;36.70;16.40;;;;;;;15.70;52.78;100162.56;4273600;28;20231;-68
2022/10/14 08:01:17;;;;;;;33.33;16.23;;;;;;;15.18;55.36;100169.59;4260329;28;20446;-66
2022/10/14 08:03:45;;;;;;;39.50;17.53;;;;;;;14.80;57.59;100159.88;4270595;28;21438;-68
2022/10/14 08:06:12;;;;;;;34.70;16.20;;;;;;;15.40;54.82;100162.53;4258789;28;22320;-67
2022/10/14 08:08:40;;;;;;;38.10;16.17;;;;;;;15.06;56.22;100164.88;4266358;28;20286;-67
2022/10/14 08:11:08;;;;;;;36.30;17.13;;;;;;;15.88;52.95;100166.75;4277320;28;21105;-67
2022/10/14 08:13:36;;;;;;;31.50;16.07;;;;;;;17.05;49.95;100177.34;4260605;28;21866;-66
2022/10/14 08:16:22;;;;;;;35.00;15.73;;;;;;;17.02;48.24;100170.50;4245474;28;21042;-68
2022/10/14 08:18:49;;;;;;;45.27;16.37;;;;;;;14.96;55.04;100157.06;4231634;28;23391;-68
2022/10/14 08:21:17;;;;;;;41.07;16.30;;;;;;;14.32;58.36;100150.13;4247898;28;23542;-68
2022/10/14 08:23:44;;;;;;;29.80;15.80;;;;;;;14.27;58.85;100152.50;4262629;28;25480;-70
2022/10/14 08:26:20;;;;;;;32.83;15.33;;;;;;;14.65;58.11;100151.78;4250822;28;20259;-68
2022/10/14 08:28:48;;;;;;;35.40;15.23;;;;;;;14.49;58.22;100160.72;4248146;28;20226;-68
2022/10/14 08:31:15;;;;;;;30.07;15.10;;;;;;;14.28;59.53;100172.06;4238975;28;21674;-68
2022/10/14 08:33:41;;;;;;;32.77;14.97;;;;;;;13.92;60.53;100170.72;4246047;28;21748;-67
2022/10/14 08:36:08;;;;;;;36.50;15.37;;;;;;;13.47;62.27;100166.84;4230991;28;22036;-69
2022/10/14 08:38:35;;;;;;;35.10;15.70;;;;;;;13.31;63.76;100161.53;4230398;28;20348;-70
2022/10/14 08:41:24;;;;;;;34.43;16.97;;;;;;;13.37;63.40;100166.22;4236657;28;21072;-58
2022/10/14 08:44:10;;;;;;;32.10;15.67;;;;;;;13.10;64.99;100156.69;4254779;28;20431;-69
2022/10/14 08:46:50;;;;;;;36.50;15.93;;;;;;;12.98;65.62;100158.84;4261072;28;20520;-70
2022/10/14 08:49:43;;;;;;;31.07;16.17;;;;;;;12.91;66.64;100155.19;4257006;28;20231;-68
2022/10/14 08:52:17;;;;;;;34.83;16.07;;;;;;;13.06;66.90;100153.53;4239356;28;20299;-70
2022/10/14 08:54:47;;;;;;;30.70;15.30;;;;;;;13.56;66.13;100153.47;4240714;28;21124;-62
2022/10/14 08:57:26;;;;;;;36.03;15.97;;;;;;;13.64;63.99;100156.13;4241237;28;20499;-68
2022/10/14 08:59:53;;;;;;;33.93;16.47;;;;;;;13.42;65.05;100145.16;4266373;28;20264;-68
2022/10/14 09:02:38;;;;;;;37.13;16.03;;;;;;;13.59;65.04;100147.78;4243171;28;20304;-67
2022/10/14 09:05:05;;;;;;;34.27;15.60;;;;;;;13.66;64.30;100141.56;4233469;28;21257;-72
2022/10/14 09:07:33;;;;;;;33.70;15.53;;;;;;;13.70;64.55;100140.22;4239080;28;20231;-68
2022/10/14 09:10:05;;;;;;;31.70;15.77;;;;;;;13.89;63.84;100147.00;4253789;28;20309;-69
2022/10/14 09:12:36;;;;;;;31.73;15.33;;;;;;;14.14;63.07;100141.50;4268866;28;20291;-69
2022/10/14 09:15:37;;;;;;;37.80;16.03;;;;;;;14.57;61.82;100145.47;4293550;28;20353;-68
2022/10/14 09:18:13;;;;;;;31.37;16.37;;;;;;;14.84;61.22;100151.28;4304884;28;20232;-69
2022/10/14 09:20:40;;;;;;;35.73;16.03;;;;;;;14.99;61.34;100157.53;4279565;28;20234;-68
2022/10/14 09:23:11;;;;;;;30.93;15.87;;;;;;;15.03;59.66;100155.34;4248394;28;20307;-68
2022/10/14 09:25:44;;;;;;;38.70;15.77;;;;;;;14.86;60.00;100151.94;4260431;28;20248;-69
2022/10/14 09:28:11;;;;;;;39.63;17.50;;;;;;;14.50;61.71;100143.66;4258293;28;20431;-67
2022/10/14 09:30:39;;;;;;;34.97;16.83;;;;;;;14.21;63.35;100134.47;4229819;28;20231;-68
2022/10/14 09:33:12;;;;;;;33.77;17.50;;;;;;;14.05;65.09;100134.56;4227165;28;21473;-68
2022/10/14 09:35:40;;;;;;;38.10;17.37;;;;;;;13.88;66.30;100141.81;4240782;28;20583;-68
2022/10/14 09:38:07;;;;;;;42.03;19.77;;;;;;;14.03;65.47;100141.94;4263342;28;20244;-72
2022/10/14 09:40:36;;;;;;;38.57;16.93;;;;;;;14.06;65.33;100138.91;4255237;28;22283;-67
2022/10/14 09:43:08;;;;;;;34.63;16.10;;;;;;;13.97;65.77;100146.13;4224882;28;20257;-72
2022/10/14 09:45:55;;;;;;;36.57;15.90;;;;;;;13.91;65.36;100139.63;4235999;28;20477;-69
2022/10/14 09:48:36;;;;;;;33.40;16.37;;;;;;;13.94;65.48;100139.28;4245351;28;23372;-68
2022/10/14 09:51:17;;;;;;;40.63;16.13;;;;;;;14.04;65.26;100143.59;4239660;28;20611;-70
2022/10/14 09:53:54;;;;;;;35.10;16.03;;;;;;;13.96;65.97;100138.28;4240588;28;20406;-70
2022/10/14 09:56:28;;;;;;;47.77;17.00;;;;;;;13.84;67.60;100132.50;4232102;28;20229;-67
2022/10/14 09:58:56;;;;;;;34.30;15.73;;;;;;;13.91;67.23;100134.28;4231592;28;20765;-65
2022/10/14 10:01:25;;;;;;;33.23;16.43;;;;;;;13.88;66.63;100134.66;4256229;28;20241;-65
2022/10/14 10:03:53;;;;;;;38.67;17.13;;;;;;;13.83;66.98;100134.31;4238528;28;20230;-66
2022/10/14 10:06:24;;;;;;;30.40;15.60;;;;;;;13.85;66.63;100126.94;4228863;28;21603;-67
2022/10/14 10:09:00;;;;;;;40.90;17.77;;;;;;;13.83;67.60;100130.81;4269141;28;20423;-66
2022/10/14 10:11:34;;;;;;;42.53;16.67;;;;;;;13.91;67.29;100125.44;4236295;28;20262;-66
2022/10/14 10:14:17;;;;;;;33.93;16.43;;;;;;;13.93;67.10;100126.94;4236542;28;20231;-67
2022/10/14 10:16:44;;;;;;;34.67;16.10;;;;;;;14.12;66.46;100132.84;4225065;28;21311;-67
2022/10/14 10:19:28;;;;;;;31.83;15.50;;;;;;;13.88;66.65;100123.09;4238673;28;20340;-68
2022/10/14 10:22:25;;;;;;;30.57;15.27;;;;;;;13.90;67.00;100126.44;4260467;28;26001;-70
2022/10/14 10:25:11;;;;;;;28.73;15.23;;;;;;;13.84;67.72;100124.47;4272375;28;20350;-74
2022/10/14 10:27:48;;;;;;;34.23;15.47;;;;;;;14.02;67.55;100121.53;4302631;28;20225;-62
2022/10/14 10:30:19;;;;;;;38.63;16.73;;;;;;;14.24;66.76;100120.75;4265124;28;20230;-63
2022/10/14 10:33:23;;;;;;;36.93;15.80;;;;;;;14.50;66.32;100123.06;4251516;28;20234;-65
2022/10/14 10:36:16;;;;;;;30.33;15.77;;;;;;;14.81;64.60;100126.72;4299137;28;20230;-64
2022/10/14 10:39:01;;;;;;;33.70;14.93;;;;;;;15.19;62.39;100119.50;4263270;28;20337;-65
2022/10/14 10:41:50;;;;;;;34.67;15.20;;;;;;;15.44;62.03;100116.56;4234646;28;20242;-65
2022/10/14 10:44:21;;;;;;;35.00;15.67;;;;;;;15.63;61.02;100119.53;4274560;28;20283;-63
2022/10/14 10:47:31;;;;;;;29.23;15.30;;;;;;;15.87;60.56;100117.59;4231123;28;20324;-63
2022/10/14 10:50:09;;;;;;;49.17;16.80;;;;;;;15.96;59.76;100119.16;4202261;29;23693;-65
2022/10/14 10:53:28;;;;;;;39.07;16.93;;;;;;;15.95;61.20;100112.13;4264025;28;22596;-66
2022/10/14 10:56:12;;;;;;;41.40;15.87;;;;;;;16.12;59.70;100123.47;4256235;28;20245;-64
2022/10/14 10:58:55;;;;;;;35.90;16.30;;;;;;;16.06;58.71;100124.25;4252524;28;20397;-65
2022/10/14 11:01:53;;;;;;;40.37;16.63;;;;;;;15.80;59.63;100117.53;4262827;28;20370;-63
2022/10/14 11:04:33;;;;;;;40.80;16.40;;;;;;;15.68;60.68;100116.28;4245179;28;20321;-64
2022/10/14 11:12:58;;;;;;;35.10;16.20;;;;;;;15.67;61.62;100105.75;4272678;28;20360;-63
2022/10/14 11:15:30;;;;;;;32.10;16.43;;;;;;;15.85;60.69;100102.69;4252144;28;21067;-62
2022/10/14 11:18:03;;;;;;;33.83;16.33;;;;;;;15.95;60.57;100092.50;4252428;28;21591;-65
2022/10/14 11:20:56;;;;;;;45.93;16.37;;;;;;;15.94;61.09;100096.19;4255719;28;20615;-64
2022/10/14 11:23:33;;;;;;;38.67;17.53;;;;;;;16.02;61.75;100099.63;4256648;28;20232;-65
2022/10/14 11:26:17;;;;;;;38.73;15.73;;;;;;;16.09;60.82;100093.50;4261181;28;21212;-63
2022/10/14 11:29:09;;;;;;;29.37;15.47;;;;;;;16.00;61.37;100087.41;4229739;28;22112;-67
2022/10/14 11:32:07;;;;;;;47.07;18.57;;;;;;;16.17;61.76;100085.31;4267849;28;20301;-63
2022/10/14 11:34:47;;;;;;;36.03;17.33;;;;;;;16.37;61.22;100078.31;4241877;28;20408;-65
2022/10/14 11:37:22;;;;;;;38.57;15.93;;;;;;;16.70;58.72;100079.66;4253543;28;20302;-66
2022/10/14 11:40:36;;;;;;;65.47;27.67;;;;;;;16.69;58.43;100078.78;4242236;28;20248;-64